KBFM

Mobile Downtown Airport

Mobile, Alabama, USA
METAR KBFM 210353Z AUTO 24003KT 10SM CLR 29/27 A2995 RMK AO2 SLP141 T02890267
Observed Flight Rules
Jul-21 @ 03:53 UTC (30 minutes ago) Visual Flight Rules
Wind Visibility Clouds
240° at 3 knots 10 miles
  • Clear skies
Temperatures Readings
Current 29°C / 84°F
Dewpoint 27°C / 81°F
Humidity 89%
Altimeter 29.95" Hg
Pressure 1014.1 hPa
Elevation 20
METAR KBFM 210353Z AUTO 24003KT 10SM CLR 29/27 A2995 RMK AO2 SLP141 T02890267
Observed Flight Rules
Jul-21 @ 03:53 UTC
(30 minutes ago)
VFR
Wind Visibility
240° at 3 knots 10 miles
Clouds
  • Clear skies
Temperature Dewpoint
29°C / 84°F 27°C / 81°F
Humidity Altimeter Pressure
89% 29.95" Hg 1014.1 hPa